createdAt,value
2019-02-11T00:00:30.311Z,99415.16
2019-02-11T00:02:58.373Z,99423.33
2019-02-11T00:05:26.462Z,99420.42
2019-02-11T00:07:54.528Z,99420.59
2019-02-11T00:10:22.620Z,99420.13
2019-02-11T00:12:50.982Z,99417.20
2019-02-11T00:15:21.902Z,99421.77
2019-02-11T00:17:50.275Z,99422.44
2019-02-11T00:20:18.360Z,99425.36
2019-02-11T00:22:46.426Z,99431.41
2019-02-11T00:25:14.489Z,99433.83
2019-02-11T00:27:42.576Z,99432.38
2019-02-11T00:30:10.682Z,99431.88
2019-02-11T00:32:38.755Z,99439.05
2019-02-11T00:35:07.913Z,99439.05
2019-02-11T00:37:36.109Z,99442.98
2019-02-11T00:40:04.386Z,99446.06
2019-02-11T00:42:32.515Z,99447.86
2019-02-11T00:45:00.849Z,99454.05
2019-02-11T00:47:28.974Z,99456.00
2019-02-11T00:49:57.891Z,99452.88
2019-02-11T00:52:25.946Z,99450.77
2019-02-11T00:54:54.091Z,99446.05
2019-02-11T00:57:22.255Z,99449.80
2019-02-11T00:59:50.326Z,99455.19
2019-02-11T01:02:18.713Z,99455.19
2019-02-11T01:04:46.841Z,99459.59
2019-02-11T01:07:14.919Z,99468.21
2019-02-11T01:09:43.013Z,99466.09
2019-02-11T01:12:11.406Z,99468.70
2019-02-11T01:14:39.479Z,99474.41
2019-02-11T01:17:07.547Z,99481.87
2019-02-11T01:19:35.619Z,99488.38
2019-02-11T01:22:03.946Z,99494.27
2019-02-11T01:24:32.321Z,99501.58
2019-02-11T01:27:00.628Z,99513.00
2019-02-11T01:29:28.689Z,99524.08
2019-02-11T01:31:57.185Z,99525.70
2019-02-11T01:34:25.280Z,99536.80
2019-02-11T01:36:53.382Z,99551.45
2019-02-11T01:39:21.750Z,99546.40
2019-02-11T01:41:49.844Z,99560.73
2019-02-11T01:44:18.201Z,99563.34
2019-02-11T01:46:46.285Z,99566.27
2019-02-11T01:49:14.347Z,99573.60
2019-02-11T01:51:42.492Z,99578.00
2019-02-11T01:54:10.578Z,99582.73
2019-02-11T01:56:38.940Z,99583.52
2019-02-11T01:59:06.996Z,99595.73
2019-02-11T02:01:35.100Z,99595.73
2019-02-11T02:04:04.205Z,99603.72
2019-02-11T02:06:32.422Z,99613.33
2019-02-11T02:09:00.498Z,99620.34
2019-02-11T02:11:28.636Z,99625.88
2019-02-11T02:13:56.714Z,99625.88
2019-02-11T02:16:24.852Z,99633.69
2019-02-11T02:18:53.098Z,99639.72
2019-02-11T02:21:21.610Z,99637.92
2019-02-11T02:23:49.671Z,99639.23
2019-02-11T02:26:17.773Z,99643.95
2019-02-11T02:28:46.113Z,99643.95
2019-02-11T02:31:14.492Z,99643.95
2019-02-11T02:33:42.855Z,99653.07
2019-02-11T02:36:11.226Z,99655.35
2019-02-11T02:38:39.253Z,99661.05
2019-02-11T02:41:07.312Z,99670.50
2019-02-11T02:43:35.610Z,99667.57
2019-02-11T02:46:03.689Z,99665.62
2019-02-11T02:48:31.800Z,99667.54
2019-02-11T02:50:59.880Z,99674.38
2019-02-11T02:53:28.290Z,99679.40
2019-02-11T02:55:56.347Z,99674.84
2019-02-11T02:58:24.408Z,99672.89
2019-02-11T03:00:52.453Z,99679.53
2019-02-11T03:03:22.074Z,99678.09
2019-02-11T03:05:52.675Z,99677.61
2019-02-11T03:08:20.084Z,99674.02
2019-02-11T03:10:48.131Z,99659.37
2019-02-11T03:13:16.242Z,99658.55
2019-02-11T03:15:44.295Z,99650.05
2019-02-11T03:18:12.325Z,99653.97
2019-02-11T03:20:40.437Z,99655.40
2019-02-11T03:23:08.547Z,99656.70
2019-02-11T03:25:36.636Z,99676.73
2019-02-11T03:28:04.747Z,99693.34
2019-02-11T03:30:34.036Z,99704.90
2019-02-11T03:33:02.086Z,99717.11
2019-02-11T03:35:30.199Z,99737.95
2019-02-11T03:37:58.742Z,99748.05
2019-02-11T03:40:26.848Z,99744.30
2019-02-11T03:42:54.901Z,99744.95
2019-02-11T03:45:22.975Z,99745.08
2019-02-11T03:47:52.050Z,99753.55
2019-02-11T03:50:20.108Z,99759.73
2019-02-11T03:52:48.412Z,99764.28
2019-02-11T03:55:16.462Z,99764.89
2019-02-11T03:57:44.534Z,99772.54
2019-02-11T04:00:12.598Z,99773.95
2019-02-11T04:02:40.678Z,99786.50
2019-02-11T04:05:08.748Z,99794.14
2019-02-11T04:07:36.831Z,99795.44
2019-02-11T04:10:05.471Z,99793.66
2019-02-11T04:12:33.537Z,99791.38
2019-02-11T04:15:01.981Z,99791.86
2019-02-11T04:17:30.108Z,99803.09
2019-02-11T04:19:58.964Z,99806.67
2019-02-11T04:22:27.414Z,99807.48
2019-02-11T04:24:56.585Z,99824.42
2019-02-11T04:27:24.927Z,99824.91
2019-02-11T04:29:52.976Z,99828.97
2019-02-11T04:32:21.082Z,99837.75
2019-02-11T04:34:49.157Z,99840.80
2019-02-11T04:37:17.297Z,99842.73
2019-02-11T04:39:45.606Z,99838.47
2019-02-11T04:42:13.640Z,99843.20
2019-02-11T04:44:42.089Z,99850.19
2019-02-11T04:47:10.463Z,99855.88
2019-02-11T04:49:38.585Z,99862.60
2019-02-11T04:52:07.000Z,99864.23
2019-02-11T04:54:35.075Z,99872.70
2019-02-11T04:57:03.115Z,99876.82
2019-02-11T04:59:31.588Z,99884.63
2019-02-11T05:02:00.173Z,99882.36
2019-02-11T05:04:28.678Z,99883.50
2019-02-11T05:06:56.716Z,99888.23
2019-02-11T05:09:25.353Z,99897.67
2019-02-11T05:11:53.446Z,99898.64
2019-02-11T05:14:21.497Z,99908.42
2019-02-11T05:16:49.877Z,99913.14
2019-02-11T05:19:18.601Z,99915.27
2019-02-11T05:21:46.649Z,99910.91
2019-02-11T05:24:14.742Z,99921.65
2019-02-11T05:26:43.088Z,99919.86
2019-02-11T05:29:11.442Z,99918.84
2019-02-11T05:31:39.483Z,99924.52
2019-02-11T05:34:07.594Z,99924.95
2019-02-11T05:36:35.626Z,99929.98
2019-02-11T05:39:05.203Z,99933.88
2019-02-11T05:41:33.304Z,99931.28
2019-02-11T05:44:01.392Z,99942.36
2019-02-11T05:46:30.064Z,99942.69
2019-02-11T05:48:58.278Z,99951.65
2019-02-11T05:51:26.786Z,99958.01
2019-02-11T05:53:54.978Z,99957.89
2019-02-11T05:56:23.107Z,99960.48
2019-02-11T05:58:51.181Z,99958.70
2019-02-11T06:01:19.526Z,99961.30
2019-02-11T06:03:47.642Z,99975.97
2019-02-11T06:06:15.741Z,99979.05
2019-02-11T06:08:44.062Z,99988.50
2019-02-11T06:11:12.102Z,100001.83
2019-02-11T06:13:40.427Z,99999.02
2019-02-11T06:16:08.519Z,100004.05
2019-02-11T06:18:36.882Z,100001.59
2019-02-11T06:21:04.943Z,100013.91
2019-02-11T06:23:33.364Z,100015.37
2019-02-11T06:26:01.435Z,100019.42
2019-02-11T06:28:30.977Z,100026.09
2019-02-11T06:30:59.044Z,100030.93
2019-02-11T06:33:27.117Z,100031.41
2019-02-11T06:35:55.194Z,100043.77
2019-02-11T06:38:23.536Z,100049.45
2019-02-11T06:40:51.603Z,100054.33
2019-02-11T06:43:19.922Z,100064.89
2019-02-11T06:45:48.034Z,100072.34
2019-02-11T06:48:16.112Z,100070.38
2019-02-11T06:50:44.381Z,100082.17
2019-02-11T06:53:12.464Z,100084.10
2019-02-11T06:55:40.637Z,100085.55
2019-02-11T06:58:08.657Z,100094.52
2019-02-11T07:00:36.942Z,100103.48
2019-02-11T07:03:05.107Z,100111.28
2019-02-11T07:05:33.190Z,100123.15
2019-02-11T07:08:01.534Z,100133.71
2019-02-11T07:10:29.654Z,100138.36
2019-02-11T07:12:57.696Z,100150.70
2019-02-11T07:15:25.857Z,100163.16
2019-02-11T07:17:53.882Z,100163.75
2019-02-11T07:20:22.355Z,100156.00
2019-02-11T07:22:50.660Z,100170.05
2019-02-11T07:25:18.785Z,100174.09
2019-02-11T07:27:46.869Z,100183.45
2019-02-11T07:30:14.934Z,100192.91
2019-02-11T07:32:43.010Z,100191.75
2019-02-11T07:35:11.121Z,100201.59
2019-02-11T07:37:39.175Z,100209.77
2019-02-11T07:40:08.101Z,100216.61
2019-02-11T07:42:48.310Z,100213.86
2019-02-11T07:45:39.032Z,100215.02
2019-02-11T07:48:07.086Z,100217.95
2019-02-11T07:50:35.482Z,100226.25
2019-02-11T07:53:03.550Z,100228.17
2019-02-11T07:55:31.638Z,100240.70
2019-02-11T07:58:00.421Z,100247.06
2019-02-11T08:00:28.676Z,100249.89
2019-02-11T08:02:56.732Z,100252.16
2019-02-11T08:05:24.799Z,100256.73
2019-02-11T08:07:52.863Z,100264.73
2019-02-11T08:10:20.927Z,100273.11
2019-02-11T08:12:48.980Z,100277.02
2019-02-11T08:15:17.057Z,100279.61
2019-02-11T08:17:46.819Z,100286.60
2019-02-11T08:20:15.110Z,100284.34
2019-02-11T08:22:44.128Z,100283.77
2019-02-11T08:25:12.177Z,100288.98
2019-02-11T08:27:40.271Z,100287.34
2019-02-11T08:30:08.495Z,100292.54
2019-02-11T08:32:36.853Z,100298.42
2019-02-11T08:35:05.096Z,100301.73
2019-02-11T08:37:33.232Z,100306.94
2019-02-11T08:40:02.396Z,100319.81
2019-02-11T08:42:30.683Z,100312.83
2019-02-11T08:44:58.840Z,100317.75
2019-02-11T08:47:27.195Z,100317.83
2019-02-11T08:49:55.361Z,100312.63
2019-02-11T08:52:24.048Z,100312.00
2019-02-11T08:54:53.177Z,100313.53
2019-02-11T08:57:22.088Z,100317.49
2019-02-11T08:59:50.231Z,100318.68
2019-02-11T09:02:18.259Z,100319.27
2019-02-11T09:04:46.412Z,100318.20
2019-02-11T09:07:14.717Z,100323.94
2019-02-11T09:09:42.806Z,100328.41
2019-02-11T09:12:10.847Z,100329.77
2019-02-11T09:14:39.333Z,100342.19
2019-02-11T09:17:10.338Z,100340.27
2019-02-11T09:19:37.336Z,100334.86
2019-02-11T09:22:07.523Z,100335.20
2019-02-11T09:24:37.113Z,100341.56
2019-02-11T09:27:05.123Z,100346.63
2019-02-11T09:29:33.231Z,100347.45
2019-02-11T09:32:02.253Z,100346.30
2019-02-11T09:34:30.534Z,100355.06
2019-02-11T09:36:58.664Z,100359.17
2019-02-11T09:39:26.813Z,100364.12
2019-02-11T09:41:54.918Z,100368.70
2019-02-11T09:44:29.468Z,100373.91
2019-02-11T09:46:53.885Z,100377.53
2019-02-11T09:49:21.945Z,100388.18
2019-02-11T09:51:50.103Z,100384.61
2019-02-11T09:54:18.559Z,100397.72
2019-02-11T09:56:46.719Z,100396.47
2019-02-11T09:59:14.754Z,100400.72
2019-02-11T10:01:43.116Z,100405.19
2019-02-11T10:04:11.293Z,100412.57
2019-02-11T10:06:39.529Z,100419.17
2019-02-11T10:09:07.907Z,100420.07
2019-02-11T10:11:35.967Z,100417.80
2019-02-11T10:14:04.003Z,100413.83
2019-02-11T10:16:34.180Z,100417.76
2019-02-11T10:19:02.489Z,100424.77
2019-02-11T10:21:30.680Z,100429.77
2019-02-11T10:23:58.755Z,100440.80
2019-02-11T10:26:26.813Z,100436.34
2019-02-11T10:28:54.842Z,100447.37
2019-02-11T10:31:22.891Z,100457.15
2019-02-11T10:33:51.165Z,100465.80
2019-02-11T10:36:19.356Z,100467.02
2019-02-11T10:38:48.492Z,100478.47
2019-02-11T10:41:17.570Z,100477.98
2019-02-11T10:43:45.630Z,100486.62
2019-02-11T10:46:20.843Z,100485.73
2019-02-11T10:48:43.904Z,100489.02
2019-02-11T10:51:11.968Z,100483.20
2019-02-11T10:53:40.110Z,100485.44
2019-02-11T10:56:08.546Z,100485.28
2019-02-11T10:58:36.587Z,100485.95
2019-02-11T11:01:04.920Z,100488.42
2019-02-11T11:03:32.940Z,100494.68
2019-02-11T11:06:01.972Z,100511.34
2019-02-11T11:08:30.000Z,100512.58
2019-02-11T11:10:58.050Z,100506.61
2019-02-11T11:13:26.400Z,100513.80
2019-02-11T11:15:54.363Z,100516.90
2019-02-11T11:18:22.401Z,100519.02
2019-02-11T11:20:50.441Z,100522.38
2019-02-11T11:23:18.529Z,100529.69
2019-02-11T11:25:46.595Z,100529.39
2019-02-11T11:28:15.334Z,100534.12
2019-02-11T11:30:43.631Z,100533.80
2019-02-11T11:33:12.449Z,100540.73
2019-02-11T11:35:40.497Z,100546.47
2019-02-11T11:38:08.567Z,100550.80
2019-02-11T11:40:36.916Z,100546.62
2019-02-11T11:43:05.046Z,100547.58
2019-02-11T11:45:33.702Z,100557.66
2019-02-11T11:48:02.666Z,100555.61
2019-02-11T11:50:30.730Z,100557.88
2019-02-11T11:52:58.773Z,100567.09
2019-02-11T11:55:26.848Z,100562.87
2019-02-11T11:57:54.977Z,100571.27
2019-02-11T12:00:25.226Z,100564.19
2019-02-11T12:03:01.946Z,100561.87
2019-02-11T12:05:23.651Z,100561.87
2019-02-11T12:07:51.680Z,100572.50
2019-02-11T12:10:19.729Z,100569.29
2019-02-11T12:12:47.802Z,100575.93
2019-02-11T12:15:18.492Z,100566.98
2019-02-11T12:17:46.874Z,100564.44
2019-02-11T12:20:15.027Z,100561.98
2019-02-11T12:22:43.249Z,100568.20
2019-02-11T12:25:12.842Z,100574.03
2019-02-11T12:27:40.998Z,100575.41
2019-02-11T12:30:21.588Z,100580.24
2019-02-11T12:32:49.712Z,100576.74
2019-02-11T12:35:17.763Z,100573.34
2019-02-11T12:37:46.346Z,100574.97
2019-02-11T12:40:15.381Z,100579.15
2019-02-11T12:42:43.441Z,100582.77
2019-02-11T12:45:14.685Z,100579.34
2019-02-11T12:47:43.061Z,100579.78
2019-02-11T12:50:12.458Z,100584.00
2019-02-11T12:52:40.560Z,100587.86
2019-02-11T12:55:09.920Z,100592.16
2019-02-11T12:57:38.011Z,100617.71
2019-02-11T13:00:11.042Z,100631.58
2019-02-11T13:02:39.096Z,100633.13
2019-02-11T13:05:08.259Z,100633.02
2019-02-11T13:07:37.525Z,100633.90
2019-02-11T13:10:06.613Z,100635.79
2019-02-11T13:12:34.993Z,100627.37
2019-02-11T13:15:04.113Z,100624.23
2019-02-11T13:17:34.410Z,100633.05
2019-02-11T13:20:08.274Z,100635.69
2019-02-11T13:22:33.165Z,100638.96
2019-02-11T13:25:01.212Z,100638.69
2019-02-11T13:27:29.253Z,100633.87
2019-02-11T13:29:57.502Z,100637.63
2019-02-11T13:32:25.573Z,100644.14
2019-02-11T13:34:54.274Z,100649.58
2019-02-11T13:37:23.454Z,100651.56
2019-02-11T13:39:51.525Z,100661.43
2019-02-11T13:42:19.693Z,100666.84
2019-02-11T13:44:47.684Z,100667.94
2019-02-11T13:47:15.761Z,100669.84
2019-02-11T13:49:46.668Z,100666.77
2019-02-11T13:52:13.742Z,100679.74
2019-02-11T13:54:41.966Z,100682.80
2019-02-11T13:57:09.993Z,100682.07
2019-02-11T13:59:38.014Z,100680.70
2019-02-11T14:02:06.286Z,100692.78
2019-02-11T14:04:34.313Z,100689.77
2019-02-11T14:07:02.780Z,100689.94
2019-02-11T14:09:30.934Z,100698.13
2019-02-11T14:11:58.995Z,100706.80
2019-02-11T14:14:29.055Z,100707.54
2019-02-11T14:16:57.314Z,100704.98
2019-02-11T14:19:25.718Z,100710.45
2019-02-11T14:21:54.216Z,100716.34
2019-02-11T14:24:22.323Z,100719.91
2019-02-11T14:26:50.382Z,100727.14
2019-02-11T14:29:18.407Z,100733.34
2019-02-11T14:31:46.654Z,100736.44
2019-02-11T14:34:14.857Z,100742.45
2019-02-11T14:36:44.405Z,100743.92
2019-02-11T14:39:13.342Z,100753.93
2019-02-11T14:41:41.850Z,100758.45
2019-02-11T14:44:13.685Z,100763.98
2019-02-11T14:46:40.214Z,100759.52
2019-02-11T14:49:08.423Z,100763.38
2019-02-11T14:51:36.648Z,100768.61
2019-02-11T14:54:06.191Z,100768.94
2019-02-11T14:56:34.423Z,100769.92
2019-02-11T14:59:02.482Z,100779.55
2019-02-11T15:01:30.590Z,100779.09
2019-02-11T15:03:59.008Z,100790.20
2019-02-11T15:06:27.097Z,100791.50
2019-02-11T15:08:55.123Z,100812.55
2019-02-11T15:11:23.187Z,100803.58
2019-02-11T15:13:51.204Z,100803.92
2019-02-11T15:16:19.305Z,100808.61
2019-02-11T15:18:47.340Z,100807.22
2019-02-11T15:21:16.493Z,100816.34
2019-02-11T15:23:44.560Z,100805.84
2019-02-11T15:26:12.752Z,100813.48
2019-02-11T15:28:40.750Z,100816.08
2019-02-11T15:31:08.824Z,100822.08
2019-02-11T15:33:36.873Z,100830.09
2019-02-11T15:36:05.745Z,100831.50
2019-02-11T15:38:34.190Z,100838.20
2019-02-11T15:41:02.246Z,100836.01
2019-02-11T15:43:51.258Z,100835.83
2019-02-11T15:46:19.436Z,100840.94
2019-02-11T15:48:47.469Z,100850.83
2019-02-11T15:51:15.547Z,100854.88
2019-02-11T15:53:43.632Z,100860.68
2019-02-11T15:56:11.703Z,100867.09
2019-02-11T15:58:39.733Z,100874.90
2019-02-11T16:01:07.898Z,100882.68
2019-02-11T16:03:36.997Z,100888.21
2019-02-11T16:06:10.204Z,100889.94
2019-02-11T16:08:36.201Z,100889.19
2019-02-11T16:11:04.522Z,100890.72
2019-02-11T16:13:32.603Z,100898.52
2019-02-11T16:16:01.053Z,100896.09
2019-02-11T16:18:29.170Z,100895.91
2019-02-11T16:20:57.591Z,100896.23
2019-02-11T16:23:25.850Z,100911.91
2019-02-11T16:25:53.857Z,100921.94
2019-02-11T16:28:22.293Z,100924.13
2019-02-11T16:30:50.315Z,100925.52
2019-02-11T16:33:18.469Z,100921.66
2019-02-11T16:35:46.998Z,100928.72
2019-02-11T16:38:16.283Z,100928.78
2019-02-11T16:41:16.722Z,100933.03
2019-02-11T16:44:16.521Z,100938.20
2019-02-11T16:46:44.680Z,100944.28
2019-02-11T16:49:12.824Z,100955.19
2019-02-11T16:51:40.953Z,100964.12
2019-02-11T16:54:08.990Z,100967.76
2019-02-11T16:56:37.108Z,100963.30
2019-02-11T16:59:05.156Z,100968.48
2019-02-11T17:01:33.270Z,100970.63
2019-02-11T17:04:01.643Z,100963.80
2019-02-11T17:06:29.704Z,100971.28
2019-02-11T17:08:58.001Z,100967.98
2019-02-11T17:11:26.042Z,100969.86
2019-02-11T17:13:54.104Z,100977.21
2019-02-11T17:16:22.116Z,100972.27
2019-02-11T17:18:50.234Z,100978.44
2019-02-11T17:21:18.314Z,100979.84
2019-02-11T17:23:46.959Z,100974.89
2019-02-11T17:26:15.004Z,100983.81
2019-02-11T17:28:43.075Z,100993.90
2019-02-11T17:31:11.451Z,100994.00
2019-02-11T17:33:39.497Z,100996.87
2019-02-11T17:36:07.510Z,101007.44
2019-02-11T17:38:35.699Z,101021.32
2019-02-11T17:41:03.761Z,101037.20
2019-02-11T17:43:31.878Z,101043.63
2019-02-11T17:46:00.802Z,101044.47
2019-02-11T17:48:29.475Z,101057.39
2019-02-11T17:50:57.853Z,101065.25
2019-02-11T17:53:25.950Z,101070.95
2019-02-11T17:55:54.070Z,101068.53
2019-02-11T17:58:22.195Z,101075.66
2019-02-11T18:00:55.142Z,101079.56
2019-02-11T18:03:23.204Z,101083.03
2019-02-11T18:05:51.223Z,101083.73
2019-02-11T18:08:19.803Z,101083.16
2019-02-11T18:10:47.869Z,101089.19
2019-02-11T18:13:15.954Z,101094.62
2019-02-11T18:15:44.038Z,101100.20
2019-02-11T18:18:12.164Z,101104.45
2019-02-11T18:20:41.385Z,101115.20
2019-02-11T18:23:09.541Z,101120.79
2019-02-11T18:25:37.994Z,101122.20
2019-02-11T18:28:07.117Z,101127.39
2019-02-11T18:30:35.157Z,101127.38
2019-02-11T18:33:03.689Z,101132.09
2019-02-11T18:35:32.669Z,101139.88
2019-02-11T18:38:01.247Z,101146.39
2019-02-11T18:40:29.566Z,101156.66
2019-02-11T18:42:57.650Z,101159.59
2019-02-11T18:45:25.670Z,101167.16
2019-02-11T18:47:53.933Z,101176.39
2019-02-11T18:50:21.994Z,101176.95
2019-02-11T18:52:50.083Z,101189.13
2019-02-11T18:55:19.032Z,101193.51
2019-02-11T18:57:47.129Z,101209.59
2019-02-11T19:00:17.420Z,101213.02
2019-02-11T19:02:45.997Z,101220.00
2019-02-11T19:05:14.653Z,101223.91
2019-02-11T19:07:42.942Z,101223.91
2019-02-11T19:10:11.755Z,101229.81
2019-02-11T19:12:39.925Z,101231.55
2019-02-11T19:15:10.698Z,101233.44
2019-02-11T19:17:38.887Z,101243.11
2019-02-11T19:20:09.317Z,101253.04
2019-02-11T19:22:37.526Z,101256.11
2019-02-11T19:25:06.899Z,101257.89
2019-02-11T19:27:35.414Z,101258.47
2019-02-11T19:30:05.896Z,101256.07
2019-02-11T19:32:34.982Z,101255.48
2019-02-11T19:35:03.330Z,101256.98
2019-02-11T19:37:31.685Z,101261.58
2019-02-11T19:39:59.719Z,101264.37
2019-02-11T19:42:28.204Z,101269.34
2019-02-11T19:44:56.653Z,101275.72
2019-02-11T19:47:25.069Z,101277.37
2019-02-11T19:49:53.342Z,101288.17
2019-02-11T19:52:21.840Z,101287.70
2019-02-11T19:54:50.065Z,101287.59
2019-02-11T19:57:19.411Z,101296.69
2019-02-11T19:59:47.602Z,101293.45
2019-02-11T20:02:16.076Z,101292.38
2019-02-11T20:04:44.137Z,101302.42
2019-02-11T20:07:12.311Z,101304.20
2019-02-11T20:09:40.409Z,101303.92
2019-02-11T20:12:08.506Z,101310.65
2019-02-11T20:14:36.545Z,101314.27
2019-02-11T20:17:06.146Z,101324.78
2019-02-11T20:19:34.786Z,101320.77
2019-02-11T20:22:02.908Z,101329.80
2019-02-11T20:24:31.262Z,101327.66
2019-02-11T20:26:59.327Z,101338.42
2019-02-11T20:29:27.869Z,101338.78
2019-02-11T20:31:55.981Z,101330.98
2019-02-11T20:34:25.187Z,101337.48
2019-02-11T20:36:54.367Z,101344.34
2019-02-11T20:39:22.550Z,101344.70
2019-02-11T20:41:50.738Z,101344.81
2019-02-11T20:44:19.325Z,101343.40
2019-02-11T20:46:47.426Z,101339.25
2019-02-11T20:49:15.668Z,101342.68
2019-02-11T20:51:43.794Z,101340.66
2019-02-11T20:54:13.247Z,101328.22
2019-02-11T20:56:41.382Z,101328.22
2019-02-11T20:59:09.601Z,101324.42
2019-02-11T21:01:38.347Z,101335.19
2019-02-11T21:04:07.478Z,101337.67
2019-02-11T21:06:35.550Z,101333.22
2019-02-11T21:09:04.749Z,101334.87
2019-02-11T21:11:32.992Z,101327.66
2019-02-11T21:14:01.342Z,101312.61
2019-02-11T21:16:29.383Z,101311.07
2019-02-11T21:18:57.519Z,101313.42
2019-02-11T21:21:25.812Z,101325.67
2019-02-11T21:23:54.016Z,101328.14
2019-02-11T21:26:22.046Z,101322.41
2019-02-11T21:28:50.264Z,101334.30
2019-02-11T21:31:18.323Z,101334.52
2019-02-11T21:33:48.126Z,101335.28
2019-02-11T21:36:16.163Z,101339.41
2019-02-11T21:38:44.624Z,101340.17
2019-02-11T21:41:14.076Z,101334.25
2019-02-11T21:43:42.255Z,101339.17
2019-02-11T21:46:10.283Z,101340.69
2019-02-11T21:48:38.630Z,101322.44
2019-02-11T21:51:06.777Z,101313.45
2019-02-11T21:53:35.297Z,101312.73
2019-02-11T21:56:03.346Z,101302.06
2019-02-11T21:58:31.391Z,101300.88
2019-02-11T22:01:02.437Z,101299.68
2019-02-11T22:03:30.422Z,101303.69
2019-02-11T22:05:58.585Z,101310.73
2019-02-11T22:08:27.667Z,101316.75
2019-02-11T22:10:55.713Z,101322.52
2019-02-11T22:13:23.771Z,101320.03
2019-02-11T22:15:51.807Z,101323.93
2019-02-11T22:18:20.001Z,101329.59
2019-02-11T22:20:48.035Z,101352.86
2019-02-11T22:23:16.106Z,101361.48
2019-02-11T22:25:44.429Z,101380.03
2019-02-11T22:28:12.501Z,101399.41
2019-02-11T22:30:40.778Z,101411.48
2019-02-11T22:33:09.147Z,101412.78
2019-02-11T22:35:37.918Z,101417.33
2019-02-11T22:38:05.978Z,101426.63
2019-02-11T22:40:35.235Z,101434.50
2019-02-11T22:43:03.272Z,101448.31
2019-02-11T22:45:31.581Z,101460.83
2019-02-11T22:47:59.702Z,101459.83
2019-02-11T22:50:27.885Z,101465.02
2019-02-11T22:52:56.968Z,101466.32
2019-02-11T22:55:25.503Z,101465.38
2019-02-11T22:57:53.551Z,101467.62
2019-02-11T23:00:42.760Z,101464.83
2019-02-11T23:03:11.326Z,101475.22
2019-02-11T23:05:39.475Z,101464.47
2019-02-11T23:08:09.928Z,101465.66
2019-02-11T23:10:38.037Z,101472.08
2019-02-11T23:13:06.151Z,101472.08
2019-02-11T23:15:34.851Z,101472.52
2019-02-11T23:18:03.287Z,101478.19
2019-02-11T23:20:31.766Z,101476.89
2019-02-11T23:23:00.075Z,101480.23
2019-02-11T23:25:28.897Z,101475.77
2019-02-11T23:27:57.076Z,101481.70
2019-02-11T23:30:25.205Z,101485.41
2019-02-11T23:32:53.273Z,101479.64
2019-02-11T23:35:21.345Z,101487.16
2019-02-11T23:37:49.386Z,101488.72
2019-02-11T23:40:17.667Z,101495.03
2019-02-11T23:42:47.031Z,101500.02
2019-02-11T23:45:15.098Z,101501.11
2019-02-11T23:47:43.264Z,101500.92
2019-02-11T23:50:11.393Z,101502.48
2019-02-11T23:52:39.485Z,101512.23
2019-02-11T23:55:07.603Z,101515.45
2019-02-11T23:57:35.660Z,101520.18
